Los Posos, Valles Caldera, New Mexico Weather observations

Data are for 10 minute period ending at time listed.
 Day   Time   Solar   Ave.   Ave.  Ave.  Vector  Max.   Baro.   Total    
  of    of     Rad.   Air    Rel.  Wind   Wind   Wind  Press.  Precip.   
Year   Day            Temp.  Hum.  Speed  Dir.   Gust                    
2016   (MST)  Kw/m2    F      %     mph   deg.    mph    mb.     in.     
-------------------------------------------------------------------------
  35   15:30   0.25   27.6    37    4.0   291     8.4   99999.0    0.00 
  35   15:40   0.20   26.9    37    4.5   308     8.4   99999.0    0.00 
  35   15:50   0.19   26.2    35    4.9   312     8.4   99999.0    0.00 
  35   16:00   0.15   25.4    34    6.8   319    11.9   99999.0    0.00 
  35   16:10   0.13   24.4    35    7.6   328    11.3   99999.0    0.00 
  35   16:20   0.13   23.9    37    6.0   325    10.2   99999.0    0.00 
  35   16:30   0.11   23.9    36    6.2   331    10.2   99999.0    0.00 
  35   16:40   0.09   23.2    41    5.4   331     9.0   99999.0    0.00 
  35   16:50   0.09   22.2    41    4.5   298     8.4   99999.0    0.00 
  35   17:00   0.07   21.7    41    3.8   300     6.0   99999.0    0.00 
  35   17:10   0.03   21.0    40    4.8   320     8.4   99999.0    0.00 
  35   17:20   0.01   19.7    42    2.5   320     4.8   99999.0    0.00 
  35   17:30   0.01   18.6    45    0.4   232     1.8   99999.0    0.00 
  35   17:40   0.01   18.5    46    1.6   244     3.6   99999.0    0.00 
  35   17:50   0.00   17.4    52    1.1   301     2.4   99999.0    0.00 
  35   18:00   0.00   16.6    51    1.1   268     4.2   99999.0    0.00 
  35   18:10   0.00   15.7    53    0.6   267     2.4   99999.0    0.00 
  35   18:20   0.00   13.2    61    2.0   230     7.2   99999.0    0.00 
  35   18:30   0.00   10.8    65    2.4   224     3.6   99999.0    0.00 
  35   18:40   0.00    9.2    66    2.4   210     3.6   99999.0    0.00 
  35   18:50   0.00    9.4    66    2.4   226     4.8   99999.0    0.00 
  35   19:00   0.00   12.4    60    3.0   267     5.4   99999.0    0.00 
  35   19:10   0.00   12.8    57    2.2     9     3.6   99999.0    0.00 
  35   19:20   0.00   11.0    60    1.3   148     2.4   99999.0    0.00 
  35   19:30   0.00    8.6    64    1.6   221     2.4   99999.0    0.00 
  35   19:40   0.00    5.6    69    2.2   222     4.2   99999.0    0.00 
  35   19:50   0.00    4.1    73    2.8   224     4.2   99999.0    0.00 
  35   20:00   0.00    4.8    73    2.7   221     4.2   99999.0    0.00 
  35   20:10   0.00    4.6    75    3.3   231     4.8   99999.0    0.00 
  35   20:20   0.00    5.4    75    2.7   223     4.2   99999.0    0.00 
  35   20:30   0.00    8.4    70    3.0   193     4.2   99999.0    0.00 
  35   20:40   0.00    9.2    68    2.8   238     4.2   99999.0    0.00 
  35   20:50   0.00   10.3    66    2.4   223     6.0   99999.0    0.00 
  35   21:00   0.00   10.7    62    2.7    24     4.8   99999.0    0.00 
  35   21:10   0.00    8.4    66    2.9   125     5.4   99999.0    0.00 
  35   21:20   0.00    6.5    70    3.0    78     4.2   99999.0    0.00 
  35   21:30   0.00    7.5    73    3.2   181     6.0   99999.0    0.00 
  35   21:40   0.00   11.0    70    4.9   268    13.7   99999.0    0.00 
  35   21:50   0.00   13.4    67    5.2   310    14.3   99999.0    0.00 
  35   22:00   0.00   13.4    70    6.0   303    12.5   99999.0    0.00 
  35   22:10   0.00   12.6    70    4.6   315    11.9   99999.0    0.00 
  35   22:20   0.00   12.3    71    3.9   327     6.0   99999.0    0.00 
  35   22:30   0.00    8.9    69    3.7    51     6.0   99999.0    0.00 
  35   22:40   0.00    5.7    75    2.5    38     5.4   99999.0    0.00 
  35   22:50   0.00    4.2    81    2.4   169     5.4   99999.0    0.00 
  35   23:00   0.00    4.9    82    3.3   293     7.2   99999.0    0.00 
  35   23:10   0.00    6.9    82    5.0   302     9.6   99999.0    0.00 
  35   23:20   0.00   10.1    79    7.5   311    13.7   99999.0    0.00 
  35   23:30   0.00   10.5    77    5.2   308    10.8   99999.0    0.00 
  35   23:40   0.00   10.6    78    5.6   295    12.5   99999.0    0.00 
  35   23:50   0.00   11.2    77    6.9   290    11.3   99999.0    0.00 
  36    0:00   0.00   11.3    77    6.2   294    11.9   99999.0    0.00 
  36    0:10   0.00   11.2    77    6.5   302    11.9   99999.0    0.00 
  36    0:20   0.00   11.1    77    5.4   308    13.7   99999.0    0.00 
  36    0:30   0.00   10.9    77    6.7   308    13.1   99999.0    0.00 
  36    0:40   0.00   10.8    78    7.1   312    13.7   99999.0    0.00 
  36    0:50   0.00   11.0    78    8.3   319    16.7   99999.0    0.00 
  36    1:00   0.00   11.2    78    8.9   323    13.1   99999.0    0.00 
  36    1:10   0.00   11.3    79    9.8   321    16.7   99999.0    0.00 
  36    1:20   0.00   11.7    78    8.0   321    13.1   99999.0    0.00 
  36    1:30   0.00   11.4    78    6.9   318    13.7   99999.0    0.00 
  36    1:40   0.00   11.8    77    7.8   294    12.5   99999.0    0.00 
  36    1:50   0.00   11.8    76    6.4   290    13.1   99999.0    0.00 
  36    2:00   0.00   11.7    76    6.5   271    13.7   99999.0    0.00 
  36    2:10   0.00   11.8    76    7.3   268    15.5   99999.0    0.00 
  36    2:20   0.00   11.7    76    5.8   272    11.9   99999.0    0.00 
  36    2:30   0.00   11.4    77    3.8   273    12.5   99999.0    0.00 
  36    2:40   0.00   11.4    77    3.6   258     8.4   99999.0    0.00 
  36    2:50   0.00   11.5    77    5.6   282     9.6   99999.0    0.00 
  36    3:00   0.00   11.8    76    6.2   283    12.5   99999.0    0.00 
  36    3:10   0.00   11.9    75    5.5   285     9.6   99999.0    0.00 
  36    3:20   0.00   11.5    76    4.1   278    10.8   99999.0    0.00 
  36    3:30   0.00   11.5    76    5.7   271    10.8   99999.0    0.00 
  36    3:40   0.00   11.5    75    5.2   289     7.8   99999.0    0.00 
  36    3:50   0.00   11.3    76    4.6   296     9.0   99999.0    0.00 
  36    4:00   0.00   10.8    76    3.4   300     6.0   99999.0    0.00 
  36    4:10   0.00   10.3    76    5.4   343    10.8   99999.0    0.00 
  36    4:20   0.00   10.5    75    7.5   348    12.5   99999.0    0.00 
  36    4:30   0.00    9.5    75    8.1   352    11.3   99999.0    0.00 
  36    4:40   0.00    9.4    75    7.6   356    10.8   99999.0    0.00 
  36    4:50   0.00    7.5    76    6.6    20     9.0   99999.0    0.00 
  36    5:00   0.00    6.3    77    6.7     4     9.0   99999.0    0.00 
  36    5:10   0.00    5.1    80    7.4   349     9.6   99999.0    0.00 
  36    5:20   0.00    4.7    80    7.2   354     9.6   99999.0    0.00 
  36    5:30   0.00    3.1    80    6.6   358     9.6   99999.0    0.00 
  36    5:40   0.00    4.3    84    5.4   305     8.4   99999.0    0.00 
  36    5:50   0.00    4.6    81    5.1   287     7.2   99999.0    0.00 
  36    6:00   0.00    2.7    82    3.7   283     4.8   99999.0    0.00 
  36    6:10   0.00    0.6    83    3.5   269     4.8   99999.0    0.00 
  36    6:20   0.00   -0.8    84    2.8   277     4.2   99999.0    0.00 
  36    6:30   0.00   -2.4    85    2.1     3     4.8   99999.0    0.00 
  36    6:40   0.00   -2.8    87    2.6   344     4.8   99999.0    0.00 
  36    6:50   0.00   -3.2    86    3.3   350     5.4   99999.0    0.00 
  36    7:00   0.00   -3.6    86    2.2   313     4.2   99999.0    0.00 
  36    7:10   0.01   -4.3    86    2.7   301     4.8   99999.0    0.00 
  36    7:20   0.01   -3.4    87    2.5   337     4.2   99999.0    0.00 
  36    7:30   0.01   -1.4    87    2.8   356     5.4   99999.0    0.00 
  36    7:40   0.01   -0.5    85    3.0   338     5.4   99999.0    0.00 
  36    7:50   0.02   -0.3    85    3.4   318     7.2   99999.0    0.00 
  36    8:00   0.02    2.6    84    4.7   352     7.8   99999.0    0.00 
  36    8:10   0.04    4.3    78    5.8   332    15.5   99999.0    0.00 
  36    8:20   0.22   12.7    60   11.8   354    18.5   99999.0    0.00 
  36    8:30   0.26   17.8    45   15.6   346    23.3   99999.0    0.00 
  36    8:40   0.29   19.2    42   16.8   344    23.3   99999.0    0.00 
  36    8:50   0.32   20.2    41   15.6   341    26.2   99999.0    0.00 
  36    9:00   0.35   20.3    42   15.7   342    22.7   99999.0    0.00 
  36    9:10   0.39   21.1    39   15.0   343    24.5   99999.0    0.00 
  36    9:20   0.41   22.1    37   13.7   344    19.7   99999.0    0.00 
  36    9:30   0.44   22.7    36   13.0   341    18.5   99999.0    0.00 
  36    9:40   0.46   22.9    36   13.0   338    22.1   99999.0    0.00 
  36    9:50   0.50   22.2    37   14.7   335    20.9   99999.0    0.00 
  36   10:00   0.52   22.9    36   13.5   333    20.9   99999.0    0.00 
  36   10:10   0.55   24.3    34   11.2   339    16.1   99999.0    0.00 
  36   10:20   0.57   26.4    32    9.3    12    16.7   99999.0    0.00 
  36   10:30   0.59   26.7    31   10.8    14    21.5   99999.0    0.00 
  36   10:40   0.61   25.3    32   12.9     8    20.3   99999.0    0.00 
  36   10:50   0.63   25.8    32   15.6   346    22.7   99999.0    0.00 
  36   11:00   0.65   26.6    31   14.3   359    20.3   99999.0    0.00 
  36   11:10   0.66   28.1    29   11.7   351    17.9   99999.0    0.00 
  36   11:20   0.68   29.4    28   11.6   337    19.7   99999.0    0.00 
  36   11:30   0.69   27.9    29   11.4   334    18.5   99999.0    0.00 
  36   11:40   0.70   29.4    28   13.0   345    19.7   99999.0    0.00 
  36   11:50   0.70   28.8    29   12.2   342    18.5   99999.0    0.00 
  36   12:00   0.71   30.6    27   11.8   354    21.5   99999.0    0.00 
  36   12:10   0.71   30.0    28   12.2   339    20.3   99999.0    0.00 
  36   12:20   0.72   33.4    24    9.4   350    16.7   99999.0    0.00 
  36   12:30   0.72   30.4    26   10.6   328    16.7   99999.0    0.00 
  36   12:40   0.72   30.5    27   10.1   346    16.7   99999.0    0.00 
  36   12:50   0.71   33.0    25   10.7   345    14.9   99999.0    0.00 
  36   13:00   0.71   33.5    24    9.1   348    14.3   99999.0    0.00 
  36   13:10   0.70   33.2    25    8.7   345    13.1   99999.0    0.00 
  36   13:20   0.69   35.4    22    8.9   353    17.3   99999.0    0.00 
  36   13:30   0.68   33.6    22   10.2   351    18.5   99999.0    0.00 
  36   13:40   0.66   33.4    24    7.0   347    10.8   99999.0    0.00 
  36   13:50   0.65   33.8    22    9.0    16    16.1   99999.0    0.00 
  36   14:00   0.63   35.5    20    8.8    10    14.3   99999.0    0.00 
  36   14:10   0.62   34.4    21   10.5     3    17.9   99999.0    0.00 
  36   14:20   0.60   35.4    19    7.1   351    13.7   99999.0    0.00 
  36   14:30   0.58   36.3    18    6.3   317    13.1   99999.0    0.00 
  36   14:40   0.56   33.0    20    6.4   328    10.2   99999.0    0.00 
  36   14:50   0.53   30.5    22    8.4   307    13.7   99999.0    0.01 
  36   15:00   0.50   29.0    23    7.9   307    14.3   99999.0    0.00 
  36   15:10   0.48   29.4    22   10.3   317    14.9   99999.0    0.00 
  36   15:20   0.45   29.7    22    9.8   323    15.5   99999.0    0.00 

Return to Los Posos, Valles Caldera graphs page.


Western Regional Climate Center,wrcc@dri.edu